createdAt,value
2023-08-31T00:01:34.233Z,18.08
2023-08-31T00:06:36.969Z,18.10
2023-08-31T00:11:40.016Z,18.12
2023-08-31T00:16:42.983Z,18.17
2023-08-31T00:21:45.946Z,18.19
2023-08-31T00:26:52.438Z,18.18
2023-08-31T00:31:55.170Z,18.11
2023-08-31T00:36:57.923Z,18.06
2023-08-31T00:42:01.723Z,18.05
2023-08-31T00:47:04.655Z,18.04
2023-08-31T00:52:08.409Z,18.08
2023-08-31T00:57:11.115Z,18.13
2023-08-31T01:02:23.344Z,18.08
2023-08-31T01:07:47.685Z,17.98
2023-08-31T01:12:53.601Z,17.94
2023-08-31T01:17:59.655Z,17.94
2023-08-31T01:23:11.356Z,18.03
2023-08-31T01:28:14.532Z,18.14
2023-08-31T01:33:17.235Z,18.18
2023-08-31T01:38:26.463Z,18.19
2023-08-31T01:43:31.208Z,18.22
2023-08-31T01:48:41.499Z,18.29
2023-08-31T01:53:45.803Z,18.36
2023-08-31T01:58:48.643Z,18.41
2023-08-31T02:03:51.528Z,18.42
2023-08-31T02:08:54.239Z,18.40
2023-08-31T02:13:58.111Z,18.33
2023-08-31T02:19:01.050Z,18.24
2023-08-31T02:24:04.374Z,18.11
2023-08-31T02:29:07.164Z,18.07
2023-08-31T02:34:10.066Z,18.07
2023-08-31T02:39:14.127Z,18.05
2023-08-31T02:44:16.949Z,17.95
2023-08-31T02:49:19.649Z,17.89
2023-08-31T02:54:22.400Z,17.86
2023-08-31T02:59:25.100Z,17.82
2023-08-31T03:04:28.068Z,17.82
2023-08-31T03:09:30.797Z,17.72
2023-08-31T03:14:33.848Z,17.57
2023-08-31T03:19:36.592Z,17.44
2023-08-31T03:24:39.272Z,17.31
2023-08-31T03:29:42.010Z,17.22
2023-08-31T03:34:44.713Z,17.13
2023-08-31T03:39:49.070Z,17.08
2023-08-31T03:44:51.765Z,16.99
2023-08-31T03:49:54.558Z,16.88
2023-08-31T03:54:57.344Z,16.79
2023-08-31T04:00:00.154Z,16.77
2023-08-31T04:05:06.559Z,16.72
2023-08-31T04:10:09.643Z,16.65
2023-08-31T04:15:14.806Z,16.56
2023-08-31T04:20:17.922Z,16.46
2023-08-31T04:25:20.696Z,16.38
2023-08-31T04:30:23.453Z,16.33
2023-08-31T04:35:26.347Z,16.32
2023-08-31T04:40:31.986Z,16.34
2023-08-31T04:45:35.107Z,16.36
2023-08-31T04:50:37.919Z,16.39
2023-08-31T04:55:40.806Z,16.41
2023-08-31T05:00:45.546Z,16.44
2023-08-31T05:05:48.468Z,16.32
2023-08-31T05:10:51.298Z,16.23
2023-08-31T05:15:53.975Z,16.17
2023-08-31T05:20:56.730Z,16.16
2023-08-31T05:26:00.086Z,16.23
2023-08-31T05:31:06.532Z,16.30
2023-08-31T05:36:09.377Z,16.35
2023-08-31T05:41:12.314Z,16.36
2023-08-31T05:46:15.185Z,16.35
2023-08-31T05:51:17.969Z,16.39
2023-08-31T05:56:20.971Z,16.36
2023-08-31T06:01:23.948Z,16.31
2023-08-31T06:06:26.899Z,16.35
2023-08-31T06:11:29.629Z,16.39
2023-08-31T06:16:32.439Z,16.38
2023-08-31T06:21:35.525Z,16.35
2023-08-31T06:26:38.244Z,16.34
2023-08-31T06:31:41.019Z,16.35
2023-08-31T06:36:43.788Z,16.32
2023-08-31T06:41:46.480Z,16.29
2023-08-31T06:46:49.167Z,16.29
2023-08-31T06:51:52.081Z,16.31
2023-08-31T06:56:54.783Z,16.33
2023-08-31T07:01:57.487Z,16.33
2023-08-31T07:07:00.401Z,16.31
2023-08-31T07:12:03.718Z,16.27
2023-08-31T07:17:06.444Z,16.29
2023-08-31T07:22:09.381Z,16.40
2023-08-31T07:27:12.117Z,16.45
2023-08-31T07:32:15.001Z,16.46
2023-08-31T07:37:17.705Z,16.43
2023-08-31T07:42:20.429Z,16.39
2023-08-31T07:47:23.220Z,16.41
2023-08-31T07:52:26.213Z,16.52
2023-08-31T07:57:29.012Z,16.62
2023-08-31T08:02:31.843Z,16.69
2023-08-31T08:07:34.560Z,16.77
2023-08-31T08:12:41.308Z,16.93
2023-08-31T08:17:44.120Z,17.07
2023-08-31T08:22:48.743Z,17.14
2023-08-31T08:27:51.556Z,17.14
2023-08-31T08:32:54.349Z,17.22
2023-08-31T08:37:57.395Z,17.33
2023-08-31T08:43:01.904Z,17.34
2023-08-31T08:48:08.690Z,17.33
2023-08-31T08:53:12.522Z,17.38
2023-08-31T08:58:15.336Z,17.51
2023-08-31T09:03:18.244Z,17.63
2023-08-31T09:08:27.907Z,17.83
2023-08-31T09:13:31.239Z,18.08
2023-08-31T09:18:35.377Z,18.28
2023-08-31T09:23:38.201Z,18.54
2023-08-31T09:28:42.160Z,18.85
2023-08-31T09:33:54.196Z,19.20
2023-08-31T09:39:00.512Z,19.27
2023-08-31T09:44:17.572Z,19.39
2023-08-31T09:49:22.502Z,19.78
2023-08-31T09:54:27.559Z,19.84
2023-08-31T09:59:30.886Z,19.71
2023-08-31T10:04:36.276Z,19.66
2023-08-31T10:09:39.919Z,19.64
2023-08-31T10:14:43.488Z,19.77
2023-08-31T10:19:46.312Z,20.03
2023-08-31T10:25:00.089Z,20.38
2023-08-31T10:30:29.908Z,20.69
2023-08-31T10:35:52.277Z,20.81
2023-08-31T10:41:04.109Z,21.00
2023-08-31T10:46:16.704Z,21.23
2023-08-31T10:51:22.401Z,21.58
2023-08-31T10:56:31.190Z,21.55
2023-08-31T11:01:52.598Z,21.42
2023-08-31T11:07:15.653Z,21.32
2023-08-31T11:12:18.689Z,21.27
2023-08-31T11:17:21.632Z,21.42
2023-08-31T11:22:24.577Z,21.72
2023-08-31T11:27:27.610Z,21.91
2023-08-31T11:32:30.331Z,22.15
2023-08-31T11:37:33.885Z,22.32
2023-08-31T11:42:36.698Z,22.47
2023-08-31T11:47:40.658Z,22.51
2023-08-31T11:52:43.912Z,22.57
2023-08-31T11:57:55.695Z,22.84
2023-08-31T12:02:59.940Z,23.15
2023-08-31T12:08:03.643Z,23.47
2023-08-31T12:13:10.852Z,23.39
2023-08-31T12:18:15.334Z,23.08
2023-08-31T12:23:20.725Z,22.98
2023-08-31T12:28:24.776Z,22.89
2023-08-31T12:33:27.596Z,22.86
2023-08-31T12:38:30.306Z,22.72
2023-08-31T12:43:33.092Z,22.67
2023-08-31T12:48:36.672Z,22.76
2023-08-31T12:53:40.666Z,22.74
2023-08-31T12:58:44.040Z,22.81
2023-08-31T13:03:51.202Z,22.79
2023-08-31T13:08:53.922Z,22.64
2023-08-31T13:13:57.046Z,22.39
2023-08-31T13:18:59.810Z,22.07
2023-08-31T13:24:02.563Z,21.66
2023-08-31T13:29:06.101Z,20.83
2023-08-31T13:34:09.063Z,19.81
2023-08-31T13:39:11.838Z,19.09
2023-08-31T13:44:14.591Z,18.90
2023-08-31T13:49:17.354Z,18.83
2023-08-31T13:54:20.166Z,18.70
2023-08-31T13:59:22.999Z,18.51
2023-08-31T14:04:25.767Z,18.34
2023-08-31T14:09:31.540Z,18.22
2023-08-31T14:14:34.336Z,18.19
2023-08-31T14:19:37.115Z,18.15
2023-08-31T14:24:39.848Z,18.14
2023-08-31T14:29:42.973Z,18.46
2023-08-31T14:34:45.826Z,20.76
2023-08-31T14:39:48.595Z,23.11
2023-08-31T14:44:51.456Z,23.33
2023-08-31T14:49:56.716Z,22.21
2023-08-31T14:55:01.450Z,22.67
2023-08-31T15:00:06.850Z,23.18
2023-08-31T15:05:09.826Z,21.94
2023-08-31T15:10:12.636Z,20.80
2023-08-31T15:15:15.799Z,20.46
2023-08-31T15:20:19.082Z,20.13
2023-08-31T15:25:22.056Z,19.51
2023-08-31T15:30:24.867Z,19.09
2023-08-31T15:35:27.655Z,18.85
2023-08-31T15:40:30.389Z,18.79
2023-08-31T15:45:33.238Z,18.79
2023-08-31T15:50:36.024Z,18.74
2023-08-31T15:55:38.764Z,18.65
2023-08-31T16:00:41.754Z,18.61
2023-08-31T16:05:50.122Z,18.66
2023-08-31T16:10:52.898Z,18.64
2023-08-31T16:15:56.724Z,19.60
2023-08-31T16:21:02.622Z,19.88
2023-08-31T16:26:05.471Z,19.71
2023-08-31T16:31:08.248Z,19.34
2023-08-31T16:36:11.030Z,19.02
2023-08-31T16:41:14.016Z,18.86
2023-08-31T16:46:16.790Z,18.75
2023-08-31T16:51:19.679Z,18.67
2023-08-31T16:56:22.410Z,18.60
2023-08-31T17:01:25.694Z,18.46
2023-08-31T17:06:29.988Z,18.26
2023-08-31T17:11:34.997Z,18.08
2023-08-31T17:16:37.921Z,17.96
2023-08-31T17:21:41.564Z,17.88
2023-08-31T17:26:44.291Z,17.79
2023-08-31T17:31:47.198Z,17.75
2023-08-31T17:36:49.943Z,17.73
2023-08-31T17:41:52.718Z,17.65
2023-08-31T17:46:56.912Z,17.52
2023-08-31T17:51:59.957Z,17.40
2023-08-31T17:57:03.785Z,17.34
2023-08-31T18:02:06.629Z,17.34
2023-08-31T18:07:09.420Z,17.34
2023-08-31T18:12:12.218Z,17.31
2023-08-31T18:17:15.023Z,17.24
2023-08-31T18:22:18.124Z,17.15
2023-08-31T18:27:21.038Z,17.04
2023-08-31T18:32:23.925Z,16.94
2023-08-31T18:37:26.930Z,16.80
2023-08-31T18:42:29.861Z,16.65
2023-08-31T18:47:32.610Z,16.47
2023-08-31T18:52:35.522Z,16.27
2023-08-31T18:57:38.952Z,16.09
2023-08-31T19:02:43.992Z,15.91
2023-08-31T19:07:47.295Z,15.75
2023-08-31T19:12:50.761Z,15.64
2023-08-31T19:17:53.641Z,15.52
2023-08-31T19:22:56.490Z,15.41
2023-08-31T19:28:03.832Z,15.27
2023-08-31T19:33:06.582Z,15.17
2023-08-31T19:38:09.370Z,15.08
2023-08-31T19:43:12.687Z,14.99
2023-08-31T19:48:15.708Z,14.93
2023-08-31T19:53:18.846Z,14.88
2023-08-31T19:58:21.679Z,14.84
2023-08-31T20:03:24.736Z,14.80
2023-08-31T20:08:27.701Z,14.75
2023-08-31T20:13:30.399Z,14.68
2023-08-31T20:18:33.173Z,14.62
2023-08-31T20:23:35.954Z,14.61
2023-08-31T20:28:38.673Z,14.61
2023-08-31T20:33:41.357Z,14.57
2023-08-31T20:38:44.159Z,14.51
2023-08-31T20:43:47.005Z,14.46
2023-08-31T20:48:49.682Z,14.43
2023-08-31T20:53:52.359Z,14.43
2023-08-31T20:58:55.373Z,14.41
2023-08-31T21:03:59.759Z,14.38
2023-08-31T21:09:04.880Z,14.34
2023-08-31T21:14:07.862Z,14.31
2023-08-31T21:19:12.353Z,14.30
2023-08-31T21:24:15.090Z,14.26
2023-08-31T21:29:17.790Z,14.19
2023-08-31T21:34:20.523Z,14.14
2023-08-31T21:39:23.238Z,14.10
2023-08-31T21:44:25.927Z,14.03
2023-08-31T21:49:28.631Z,14.01
2023-08-31T21:54:31.330Z,14.02
2023-08-31T21:59:34.025Z,14.02
2023-08-31T22:04:37.197Z,14.00
2023-08-31T22:09:41.103Z,13.96
2023-08-31T22:14:47.365Z,13.94
2023-08-31T22:19:50.172Z,13.90
2023-08-31T22:24:53.676Z,13.87
2023-08-31T22:29:56.376Z,13.82
2023-08-31T22:34:59.368Z,13.81
2023-08-31T22:40:02.448Z,13.78
2023-08-31T22:45:06.804Z,13.78
2023-08-31T22:50:10.119Z,13.75
2023-08-31T22:55:12.984Z,13.73
2023-08-31T23:00:15.943Z,13.72
2023-08-31T23:05:18.646Z,13.71
2023-08-31T23:10:30.523Z,13.70
2023-08-31T23:15:38.404Z,13.69
2023-08-31T23:20:41.372Z,13.69
2023-08-31T23:25:44.153Z,13.67
2023-08-31T23:30:46.928Z,13.65
2023-08-31T23:35:49.690Z,13.64
2023-08-31T23:41:00.005Z,13.66
2023-08-31T23:46:04.373Z,13.65
2023-08-31T23:51:07.067Z,13.65
2023-08-31T23:56:10.075Z,13.66
